Pagrindinis puslapis
METAR-TAF:

METAR-TAF

Oro uostai :

Oro pajėgų bazė

Morón de la Frontera, Ispanija

platuma: 37-09N, ilguma: 005-37W, Aukštis: 87 m

Dabartinis oras

Ataskaita buvo paskelbta 45 minutes, ne 13:30 UTC
Vėjas 13 kt iš Vakarų/Pietvakarių, svyruoja nuo Pietų/Pietvakarių ir Vakarų
Temperatūra 23°C
Drėgmė 27%
Slėgis 1009 hPa
Matomumas 10 km arba daugiau
nėra debesų žemiau 1500 m ir nėra kamuolinių lietaus debesų

METAR: LEMO 251330Z 25013KT 210V280 CAVOK 23/03 Q1009 NOSIG

Laikas: 16:15 (14:15 UTC)

Prognozė

Ataskaita buvo paskelbta 6 valandos ir 15 minutes, ne 08:00 UTC
Prognozė galioja nuo 25 metu 09 UTC su 26 metu 09 UTC
Vėjas 8 kt iš Vakarų/Pietvakarių
Matomumas 10 km arba daugiau
nėra debesų žemiau 1500 m ir nėra kamuolinių lietaus debesų

TAF: LEMO 250800Z 2509/2609 24008KT CAVOK TX25/2513Z TN10/2607Z

Orai ataskaitas ir orų prognozės (METAR, TAF).

turimą stotys yra geltonos ir raudonos taškus žemėlapyje.

Perkelti pele per norėdami pamatyti stoties vardą.

Tada spustelėkite, norėdami matyti oro stebėjimo ir prognozės.

Norėdami pakeisti žemėlapį: spustelėkite ant žalios mygtukų su juodo kryžiaus žemyn,; žalią mygtuką su brūkšneliu, jei norite nutolinti; arba žalių rodyklių gretimoms žemėlapius.


METAR-TAF: